CSN3586 ZGGG-ZSPD
Flight info
| Callsign | CSN3586 |
|---|---|
| Flight time | N/A |
| Altitude | 41100 |
| Route | LMN9 LMN G471 XEBUL DCT ODOPI DCT AKAVO DCT UPNUG W76 AREPI B221 SHZ W58 XSY |
| Aircraft | A359/H-SDE2E3GHIJ1J3J4J5LM1ORWXY/LB1D1 |
Departure
| Time | 2026-05-04 15:50 |
|---|---|
| Airport | Guangzhou Baiyun International Airport (ZGGG) |
Arrival
| Time | N/A |
|---|---|
| Airport | Shanghai Pudong International Airport (ZSPD) |
| Time | Latitude | Longitude | Altitude | Speed | Heading |
|---|---|---|---|---|---|
| 2026-05-04 14:07 | 23.40376 | 113.29558 | 65 ft | 0 kts | 104° |
| 2026-05-04 15:33 | 23.40380 | 113.29540 | 61 ft | 3 kts | 104° |
| 2026-05-04 15:34 | 23.40392 | 113.29489 | 56 ft | 0 kts | 104° |
| 2026-05-04 15:39 | 23.40387 | 113.29495 | 56 ft | 2 kts | 132° |
| 2026-05-04 15:39 | 23.40374 | 113.29490 | 56 ft | 1 kts | 210° |
| 2026-05-04 15:40 | 23.40356 | 113.29472 | 58 ft | 8 kts | 221° |
| 2026-05-04 15:40 | 23.40300 | 113.29432 | 56 ft | 7 kts | 199° |
| 2026-05-04 15:40 | 23.40242 | 113.29415 | 57 ft | 10 kts | 193° |
| 2026-05-04 15:40 | 23.40166 | 113.29396 | 57 ft | 13 kts | 193° |
| 2026-05-04 15:41 | 23.40073 | 113.29368 | 60 ft | 15 kts | 195° |
| 2026-05-04 15:41 | 23.39963 | 113.29339 | 59 ft | 17 kts | 195° |
| 2026-05-04 15:41 | 23.39837 | 113.29305 | 56 ft | 20 kts | 194° |
| 2026-05-04 15:41 | 23.39694 | 113.29266 | 58 ft | 22 kts | 194° |
| 2026-05-04 15:42 | 23.39534 | 113.29223 | 58 ft | 25 kts | 194° |
| 2026-05-04 15:42 | 23.39359 | 113.29176 | 58 ft | 27 kts | 193° |
| 2026-05-04 15:42 | 23.39170 | 113.29126 | 60 ft | 29 kts | 194° |
| 2026-05-04 15:42 | 23.38970 | 113.29071 | 56 ft | 30 kts | 194° |
| 2026-05-04 15:43 | 23.38766 | 113.29016 | 58 ft | 28 kts | 194° |
| 2026-05-04 15:43 | 23.38575 | 113.28964 | 59 ft | 30 kts | 194° |
| 2026-05-04 15:43 | 23.38378 | 113.28911 | 59 ft | 23 kts | 194° |
| 2026-05-04 15:43 | 23.38227 | 113.28870 | 57 ft | 12 kts | 194° |
| 2026-05-04 15:44 | 23.38149 | 113.28849 | 58 ft | 13 kts | 194° |
| 2026-05-04 15:44 | 23.38085 | 113.28864 | 57 ft | 8 kts | 127° |
| 2026-05-04 15:44 | 23.38060 | 113.28940 | 63 ft | 13 kts | 104° |
| 2026-05-04 15:44 | 23.38036 | 113.29045 | 60 ft | 16 kts | 104° |
| 2026-05-04 15:45 | 23.38007 | 113.29171 | 60 ft | 18 kts | 104° |
| 2026-05-04 15:45 | 23.37973 | 113.29316 | 57 ft | 21 kts | 104° |
| 2026-05-04 15:45 | 23.37936 | 113.29478 | 60 ft | 23 kts | 104° |
| 2026-05-04 15:45 | 23.37896 | 113.29657 | 55 ft | 25 kts | 103° |
| 2026-05-04 15:46 | 23.37852 | 113.29850 | 57 ft | 27 kts | 104° |
| 2026-05-04 15:46 | 23.37806 | 113.30054 | 59 ft | 28 kts | 104° |
| 2026-05-04 15:46 | 23.37797 | 113.30090 | 57 ft | 0 kts | 104° |
| 2026-05-04 15:46 | 23.37795 | 113.30101 | 61 ft | 5 kts | 104° |
| 2026-05-04 15:47 | 23.37777 | 113.30162 | 57 ft | 9 kts | 122° |
| 2026-05-04 15:47 | 23.37713 | 113.30215 | 58 ft | 15 kts | 150° |
| 2026-05-04 15:47 | 23.37647 | 113.30265 | 57 ft | 0 kts | 131° |
| 2026-05-04 15:47 | 23.37646 | 113.30267 | 57 ft | 1 kts | 127° |
| 2026-05-04 15:48 | 23.37640 | 113.30281 | 56 ft | 4 kts | 115° |
| 2026-05-04 15:48 | 23.37626 | 113.30337 | 55 ft | 10 kts | 104° |
| 2026-05-04 15:48 | 23.37590 | 113.30526 | 60 ft | 9 kts | 78° |
| 2026-05-04 15:49 | 23.37611 | 113.30543 | 62 ft | 4 kts | 20° |
| 2026-05-04 15:49 | 23.37649 | 113.30556 | 57 ft | 8 kts | 18° |
| 2026-05-04 15:49 | 23.37715 | 113.30574 | 57 ft | 17 kts | 13° |
| 2026-05-04 15:49 | 23.38066 | 113.30668 | 57 ft | 91 kts | 14° |
| 2026-05-04 15:50 | 23.38918 | 113.30898 | 61 ft | 158 kts | 14° |
| 2026-05-04 15:50 | 23.40094 | 113.31197 | 556 ft | 177 kts | 13° |
| 2026-05-04 15:50 | 23.41301 | 113.31514 | 1432 ft | 175 kts | 15° |
| 2026-05-04 15:50 | 23.42479 | 113.31840 | 1976 ft | 181 kts | 16° |
| 2026-05-04 15:51 | 23.43772 | 113.32197 | 2237 ft | 202 kts | 15° |
| 2026-05-04 15:51 | 23.45205 | 113.32640 | 2473 ft | 226 kts | 18° |
| 2026-05-04 15:51 | 23.46765 | 113.33137 | 2955 ft | 238 kts | 17° |
| 2026-05-04 15:51 | 23.48381 | 113.33639 | 3574 ft | 244 kts | 17° |
| 2026-05-04 15:52 | 23.50032 | 113.34141 | 4249 ft | 247 kts | 16° |
| 2026-05-04 15:52 | 23.51696 | 113.34642 | 4962 ft | 249 kts | 15° |
| 2026-05-04 15:52 | 23.53382 | 113.35147 | 5555 ft | 256 kts | 14° |
| 2026-05-04 15:52 | 23.55131 | 113.35663 | 5950 ft | 270 kts | 13° |
| 2026-05-04 15:53 | 23.56995 | 113.36091 | 6522 ft | 275 kts | 8° |
| 2026-05-04 15:53 | 23.58901 | 113.36456 | 7099 ft | 280 kts | 7° |
| 2026-05-04 15:53 | 23.60828 | 113.36902 | 7606 ft | 288 kts | 15° |
| 2026-05-04 15:53 | 23.62571 | 113.38012 | 8130 ft | 298 kts | 43° |
| 2026-05-04 15:54 | 23.63669 | 113.39936 | 8682 ft | 304 kts | 72° |
| 2026-05-04 15:54 | 23.64212 | 113.42184 | 9238 ft | 309 kts | 78° |
| 2026-05-04 15:54 | 23.64670 | 113.44503 | 9782 ft | 315 kts | 78° |
| 2026-05-04 15:54 | 23.65142 | 113.46867 | 10256 ft | 324 kts | 78° |
| 2026-05-04 15:55 | 23.65638 | 113.49289 | 10510 ft | 338 kts | 78° |
| 2026-05-04 15:55 | 23.66169 | 113.51845 | 10755 ft | 352 kts | 78° |
| 2026-05-04 15:55 | 23.66724 | 113.54495 | 11063 ft | 364 kts | 78° |
| 2026-05-04 15:55 | 23.67293 | 113.57204 | 11512 ft | 369 kts | 78° |
| 2026-05-04 15:56 | 23.67730 | 113.59987 | 11926 ft | 373 kts | 87° |
| 2026-05-04 15:56 | 23.67744 | 113.62828 | 12405 ft | 376 kts | 94° |
| 2026-05-04 15:56 | 23.67629 | 113.65693 | 12837 ft | 380 kts | 95° |
| 2026-05-04 15:56 | 23.67503 | 113.68602 | 13303 ft | 384 kts | 95° |
| 2026-05-04 15:57 | 23.67382 | 113.71487 | 13770 ft | 388 kts | 95° |
| 2026-05-04 15:57 | 23.67261 | 113.74439 | 14184 ft | 391 kts | 95° |
| 2026-05-04 15:57 | 23.67139 | 113.77426 | 14516 ft | 396 kts | 94° |
| 2026-05-04 15:57 | 23.67018 | 113.80434 | 14997 ft | 398 kts | 94° |
| 2026-05-04 15:58 | 23.66896 | 113.83460 | 15407 ft | 401 kts | 94° |
| 2026-05-04 15:58 | 23.66771 | 113.86514 | 15751 ft | 405 kts | 94° |
| 2026-05-04 15:58 | 23.66646 | 113.89594 | 16141 ft | 407 kts | 94° |
| 2026-05-04 15:58 | 23.66519 | 113.92688 | 16524 ft | 410 kts | 94° |
| 2026-05-04 15:59 | 23.66393 | 113.95769 | 16912 ft | 413 kts | 94° |
| 2026-05-04 15:59 | 23.66261 | 113.98955 | 17292 ft | 417 kts | 94° |
| 2026-05-04 15:59 | 23.66132 | 114.02077 | 17670 ft | 419 kts | 94° |
| 2026-05-04 15:59 | 23.66001 | 114.05258 | 18076 ft | 421 kts | 94° |
| 2026-05-04 16:00 | 23.65867 | 114.08462 | 18432 ft | 424 kts | 94° |
| 2026-05-04 16:00 | 23.65731 | 114.11687 | 18714 ft | 428 kts | 94° |
| 2026-05-04 16:00 | 23.65593 | 114.14950 | 19037 ft | 432 kts | 94° |
| 2026-05-04 16:00 | 23.65453 | 114.18247 | 19368 ft | 434 kts | 94° |
| 2026-05-04 16:01 | 23.65313 | 114.21547 | 19734 ft | 436 kts | 94° |
| 2026-05-04 16:01 | 23.65220 | 114.24860 | 20060 ft | 439 kts | 90° |
| 2026-05-04 16:01 | 23.65536 | 114.28178 | 20398 ft | 441 kts | 78° |
| 2026-05-04 16:01 | 23.66458 | 114.31363 | 20731 ft | 441 kts | 64° |
| 2026-05-04 16:02 | 23.67942 | 114.34239 | 21066 ft | 440 kts | 51° |
| 2026-05-04 16:02 | 23.69942 | 114.36742 | 21378 ft | 437 kts | 39° |
| 2026-05-04 16:02 | 23.74657 | 114.40925 | 22040 ft | 437 kts | 32° |
| 2026-05-04 16:03 | 23.77112 | 114.42901 | 22330 ft | 439 kts | 32° |
| 2026-05-04 16:03 | 23.79592 | 114.44873 | 22636 ft | 442 kts | 32° |
| 2026-05-04 16:03 | 23.82078 | 114.46858 | 22947 ft | 444 kts | 32° |
| 2026-05-04 16:03 | 23.83726 | 114.48185 | 23154 ft | 446 kts | 32° |
| 2026-05-04 16:04 | 23.86229 | 114.50216 | 23465 ft | 448 kts | 32° |
| 2026-05-04 16:04 | 23.91247 | 114.54331 | 24015 ft | 453 kts | 32° |
| 2026-05-04 16:04 | 23.93769 | 114.56409 | 24264 ft | 455 kts | 32° |
| 2026-05-04 16:05 | 23.96308 | 114.58503 | 24508 ft | 458 kts | 32° |
| 2026-05-04 16:05 | 23.98859 | 114.60608 | 24753 ft | 460 kts | 32° |
| 2026-05-04 16:05 | 24.03963 | 114.64819 | 25250 ft | 464 kts | 32° |
| 2026-05-04 16:06 | 24.06543 | 114.66951 | 25504 ft | 466 kts | 32° |
| 2026-05-04 16:06 | 24.14385 | 114.73432 | 26224 ft | 474 kts | 32° |
| 2026-05-04 16:07 | 24.17026 | 114.75618 | 26540 ft | 475 kts | 32° |
| 2026-05-04 16:07 | 24.25000 | 114.82221 | 27362 ft | 482 kts | 32° |
| 2026-05-04 16:08 | 24.27573 | 114.84548 | 27606 ft | 489 kts | 38° |
| 2026-05-04 16:08 | 24.34254 | 114.93272 | 28474 ft | 503 kts | 49° |
| 2026-05-04 16:09 | 24.38514 | 114.99400 | 29086 ft | 508 kts | 49° |
| 2026-05-04 16:09 | 24.42817 | 115.05605 | 29658 ft | 514 kts | 49° |
| 2026-05-04 16:10 | 24.47187 | 115.11871 | 30262 ft | 519 kts | 49° |
| 2026-05-04 16:11 | 24.53807 | 115.21350 | 31075 ft | 527 kts | 49° |
| 2026-05-04 16:11 | 24.56042 | 115.24551 | 31357 ft | 529 kts | 48° |
| 2026-05-04 16:12 | 24.62811 | 115.34267 | 32202 ft | 537 kts | 48° |
| 2026-05-04 16:12 | 24.69645 | 115.44158 | 33005 ft | 545 kts | 50° |
| 2026-05-04 16:13 | 24.74080 | 115.50991 | 33418 ft | 553 kts | 51° |
| 2026-05-04 16:13 | 24.78534 | 115.57943 | 33936 ft | 557 kts | 51° |
| 2026-05-04 16:14 | 24.83041 | 115.64932 | 34389 ft | 561 kts | 51° |
| 2026-05-04 16:14 | 24.87561 | 115.71915 | 34930 ft | 563 kts | 50° |
| 2026-05-04 16:15 | 24.94349 | 115.82414 | 36187 ft | 555 kts | 50° |
| 2026-05-04 16:16 | 24.98813 | 115.89329 | 36981 ft | 552 kts | 50° |
| 2026-05-04 16:16 | 25.05444 | 115.99619 | 38066 ft | 548 kts | 49° |
| 2026-05-04 16:17 | 25.09849 | 116.06466 | 38746 ft | 547 kts | 49° |
| 2026-05-04 16:18 | 25.16412 | 116.16689 | 39645 ft | 541 kts | 49° |
| 2026-05-04 16:18 | 25.18585 | 116.20079 | 39920 ft | 539 kts | 49° |
| 2026-05-04 16:19 | 25.25069 | 116.30210 | 40635 ft | 536 kts | 50° |
| 2026-05-04 16:19 | 25.29362 | 116.36922 | 41110 ft | 535 kts | 49° |
| 2026-05-04 16:20 | 25.35868 | 116.47101 | 41184 ft | 547 kts | 50° |
| 2026-05-04 16:20 | 25.40265 | 116.54001 | 41191 ft | 548 kts | 50° |
| 2026-05-04 16:22 | 25.51183 | 116.71209 | 41199 ft | 548 kts | 50° |
| 2026-05-04 16:23 | 25.64356 | 116.92025 | 41201 ft | 550 kts | 50° |
| 2026-05-04 16:25 | 25.77456 | 117.12826 | 41203 ft | 549 kts | 50° |
| 2026-05-04 16:26 | 25.92703 | 117.37153 | 41210 ft | 549 kts | 50° |
| 2026-05-04 16:28 | 26.03633 | 117.54664 | 41217 ft | 552 kts | 50° |
| 2026-05-04 16:29 | 26.18903 | 117.79248 | 41224 ft | 555 kts | 50° |
| 2026-05-04 16:31 | 26.29849 | 117.96956 | 41231 ft | 555 kts | 51° |
| 2026-05-04 16:32 | 26.42977 | 118.18272 | 41230 ft | 557 kts | 51° |
| 2026-05-04 16:33 | 26.51743 | 118.32572 | 41251 ft | 558 kts | 51° |
| 2026-05-04 16:34 | 26.58318 | 118.43322 | 41233 ft | 559 kts | 51° |
| 2026-05-04 16:35 | 26.71456 | 118.64883 | 41276 ft | 560 kts | 51° |
| 2026-05-04 16:36 | 26.78001 | 118.75658 | 41248 ft | 561 kts | 51° |
| 2026-05-04 16:37 | 26.84575 | 118.86512 | 41251 ft | 562 kts | 51° |
| 2026-05-04 16:38 | 26.93342 | 119.01029 | 41261 ft | 562 kts | 51° |
| 2026-05-04 16:39 | 27.04257 | 119.19166 | 41261 ft | 562 kts | 51° |
| 2026-05-04 16:40 | 27.13005 | 119.33755 | 41257 ft | 563 kts | 51° |
| 2026-05-04 16:41 | 27.23949 | 119.52075 | 41261 ft | 564 kts | 51° |
| 2026-05-04 16:43 | 27.33418 | 119.71537 | 41260 ft | 572 kts | 59° |
| 2026-05-04 16:43 | 27.38875 | 119.83494 | 41252 ft | 572 kts | 59° |
| 2026-05-04 16:45 | 27.49787 | 120.07381 | 41260 ft | 572 kts | 59° |
| 2026-05-04 16:46 | 27.58842 | 120.27300 | 41245 ft | 573 kts | 59° |
| 2026-05-04 16:47 | 27.62841 | 120.34994 | 41255 ft | 563 kts | 46° |
| 2026-05-04 16:47 | 27.68486 | 120.40799 | 41246 ft | 543 kts | 27° |
| 2026-05-04 16:48 | 27.81097 | 120.49981 | 41248 ft | 540 kts | 24° |
| 2026-05-04 16:49 | 27.93805 | 120.59095 | 41247 ft | 542 kts | 24° |
| 2026-05-04 16:50 | 28.07078 | 120.65915 | 41249 ft | 504 kts | 357° |
| 2026-05-04 16:51 | 28.16308 | 120.67015 | 41250 ft | 499 kts | 354° |
| 2026-05-04 16:52 | 28.30177 | 120.68278 | 41243 ft | 500 kts | 354° |
| 2026-05-04 16:53 | 28.41720 | 120.69412 | 41237 ft | 501 kts | 354° |
| 2026-05-04 16:54 | 28.54484 | 120.70685 | 41235 ft | 501 kts | 354° |
| 2026-05-04 16:55 | 28.75297 | 120.72819 | 41227 ft | 502 kts | 354° |
| 2026-05-04 16:56 | 28.92650 | 120.74721 | 41228 ft | 502 kts | 354° |
| 2026-05-04 16:57 | 29.03103 | 120.75779 | 41225 ft | 502 kts | 354° |
| 2026-05-04 16:58 | 29.13500 | 120.76848 | 40628 ft | 498 kts | 354° |
| 2026-05-04 16:58 | 29.16957 | 120.77204 | 40396 ft | 498 kts | 354° |
| 2026-05-04 16:59 | 29.23883 | 120.77916 | 39931 ft | 500 kts | 353° |
| 2026-05-04 17:00 | 29.37631 | 120.81547 | 37805 ft | 548 kts | 20° |
| 2026-05-04 17:00 | 29.47303 | 120.89306 | 34839 ft | 574 kts | 28° |
| 2026-05-04 17:01 | 29.53788 | 120.94740 | 33219 ft | 576 kts | 28° |
| 2026-05-04 17:01 | 29.60067 | 121.00057 | 32078 ft | 563 kts | 28° |
| 2026-05-04 17:02 | 29.63789 | 121.03214 | 31404 ft | 556 kts | 28° |
| 2026-05-04 17:02 | 29.69861 | 121.08368 | 30288 ft | 546 kts | 28° |
| 2026-05-04 17:03 | 29.72894 | 121.10945 | 29812 ft | 539 kts | 28° |
| 2026-05-04 17:03 | 29.75872 | 121.13545 | 29220 ft | 537 kts | 32° |
| 2026-05-04 17:03 | 29.80308 | 121.20434 | 28124 ft | 546 kts | 64° |
| 2026-05-04 17:04 | 29.82919 | 121.28473 | 27501 ft | 525 kts | 69° |
| 2026-05-04 17:04 | 29.85289 | 121.36253 | 26896 ft | 505 kts | 69° |
| 2026-05-04 17:05 | 29.87594 | 121.43782 | 26057 ft | 493 kts | 69° |
| 2026-05-04 17:05 | 29.89863 | 121.51121 | 25423 ft | 476 kts | 69° |
| 2026-05-04 17:06 | 29.92036 | 121.58159 | 24965 ft | 457 kts | 69° |
| 2026-05-04 17:06 | 29.93093 | 121.61594 | 24675 ft | 450 kts | 69° |
| 2026-05-04 17:07 | 29.95196 | 121.68301 | 23999 ft | 438 kts | 65° |
| 2026-05-04 17:07 | 29.96089 | 121.70357 | 23855 ft | 429 kts | 56° |
| 2026-05-04 17:07 | 29.98560 | 121.73736 | 23505 ft | 407 kts | 33° |
| 2026-05-04 17:07 | 30.00925 | 121.75382 | 23075 ft | 388 kts | 14° |
| 2026-05-04 17:08 | 30.03464 | 121.76114 | 22653 ft | 367 kts | 355° |
| 2026-05-04 17:08 | 30.08468 | 121.75871 | 21557 ft | 361 kts | 348° |
| 2026-05-04 17:08 | 30.10970 | 121.75649 | 21024 ft | 361 kts | 349° |
| 2026-05-04 17:09 | 30.13468 | 121.75436 | 20565 ft | 358 kts | 349° |
| 2026-05-04 17:09 | 30.15957 | 121.75228 | 20123 ft | 356 kts | 349° |
| 2026-05-04 17:09 | 30.18416 | 121.75023 | 19686 ft | 353 kts | 349° |
| 2026-05-04 17:10 | 30.23290 | 121.74617 | 18525 ft | 358 kts | 349° |
| 2026-05-04 17:10 | 30.30857 | 121.73989 | 16543 ft | 362 kts | 352° |
| 2026-05-04 17:11 | 30.33364 | 121.73785 | 15995 ft | 359 kts | 353° |
| 2026-05-04 17:11 | 30.35846 | 121.73581 | 15455 ft | 357 kts | 353° |
| 2026-05-04 17:11 | 30.40785 | 121.73174 | 14397 ft | 353 kts | 353° |
| 2026-05-04 17:12 | 30.43225 | 121.72999 | 13882 ft | 351 kts | 357° |
| 2026-05-04 17:12 | 30.47972 | 121.73308 | 13343 ft | 330 kts | 2° |
| 2026-05-04 17:13 | 30.54901 | 121.73982 | 11255 ft | 339 kts | 4° |
| 2026-05-04 17:14 | 30.61829 | 121.74708 | 9844 ft | 331 kts | 4° |
| 2026-05-04 17:14 | 30.64115 | 121.74950 | 9343 ft | 328 kts | 4° |
| 2026-05-04 17:14 | 30.68627 | 121.75539 | 8106 ft | 323 kts | 11° |
| 2026-05-04 17:15 | 30.70730 | 121.76422 | 7537 ft | 322 kts | 26° |
| 2026-05-04 17:15 | 30.74504 | 121.79184 | 6364 ft | 318 kts | 32° |
| 2026-05-04 17:16 | 30.78221 | 121.81858 | 5339 ft | 307 kts | 25° |
| 2026-05-04 17:16 | 30.83687 | 121.84782 | 4604 ft | 273 kts | 19° |
| 2026-05-04 17:17 | 30.85391 | 121.85420 | 4422 ft | 263 kts | 14° |
| 2026-05-04 17:17 | 30.90549 | 121.87017 | 3899 ft | 253 kts | 13° |
| 2026-05-04 17:18 | 30.92254 | 121.87531 | 3900 ft | 253 kts | 13° |
| 2026-05-04 17:18 | 30.95656 | 121.88551 | 3900 ft | 253 kts | 13° |
| 2026-05-04 17:19 | 30.99097 | 121.89346 | 3896 ft | 248 kts | 8° |
| 2026-05-04 17:19 | 31.02436 | 121.90023 | 3899 ft | 241 kts | 7° |
| 2026-05-04 17:20 | 31.05744 | 121.90414 | 3897 ft | 240 kts | 3° |
| 2026-05-04 17:20 | 31.08864 | 121.90536 | 3884 ft | 209 kts | 359° |
| 2026-05-04 17:20 | 31.10274 | 121.90542 | 3905 ft | 197 kts | 358° |
| 2026-05-04 17:21 | 31.12993 | 121.90523 | 3892 ft | 192 kts | 350° |
| 2026-05-04 17:21 | 31.15564 | 121.90053 | 3880 ft | 186 kts | 348° |
| 2026-05-04 17:22 | 31.16822 | 121.89805 | 3782 ft | 185 kts | 348° |
| 2026-05-04 17:22 | 31.18082 | 121.89521 | 3822 ft | 187 kts | 342° |
| 2026-05-04 17:23 | 31.21787 | 121.88233 | 3852 ft | 182 kts | 338° |
| 2026-05-04 17:23 | 31.22958 | 121.87731 | 3682 ft | 175 kts | 336° |
| 2026-05-04 17:23 | 31.25119 | 121.86682 | 3359 ft | 163 kts | 330° |
| 2026-05-04 17:24 | 31.26086 | 121.86037 | 3137 ft | 158 kts | 323° |
| 2026-05-04 17:24 | 31.28489 | 121.83488 | 2331 ft | 150 kts | 298° |
| 2026-05-04 17:25 | 31.28877 | 121.82426 | 2117 ft | 138 kts | 278° |
| 2026-05-04 17:25 | 31.28574 | 121.80387 | 1734 ft | 129 kts | 239° |
| 2026-05-04 17:26 | 31.27478 | 121.78814 | 1275 ft | 124 kts | 216° |
| 2026-05-04 17:26 | 31.25459 | 121.76987 | 1209 ft | 123 kts | 208° |
| 2026-05-04 17:27 | 31.23820 | 121.76476 | 1149 ft | 123 kts | 185° |
| 2026-05-04 17:27 | 31.22904 | 121.76522 | 1024 ft | 123 kts | 173° |